KGAG/GAG METAR and TAF weather

Enter ICAO airport designator
Station Type Date Time Source
KGAG METAR 2020/07/08 22:53 UTC NOAA

KGAG 082253Z AUTO 16019G25KT 10SM CLR 37/18 A2977 RMK AO2 PK WND 17030/2214 SLP048 T03720178


Station Type Date Time Source
KGAG Decoded METAR 2020/07/08 22:53 UTC NOAA

GAGE AIRPORT, OK, United States (KGAG) 36-18N 99-46W 668M
Jul 08, 2020 - 06:53 PM EDT / 2020.07.08 2253 UTC
Wind: from the SSE (160 degrees) at 22 MPH (19 KT) gusting to 29 MPH (25 KT):0
Visibility: 10 mile(s):0
Sky conditions: clear
Temperature: 99.0 F (37.2 C)
Heat index: 101.7 F (38.7 C):1
Dew Point: 64.0 F (17.8 C)
Relative Humidity: 32%
Pressure (altimeter): 29.77 in. Hg (1008 hPa)
ob: KGAG 082253Z AUTO 16019G25KT 10SM CLR 37/18 A2977 RMK AO2 PK WND 17030/2214 SLP048 T03720178
cycle: 23

Station Type Date Time Source
KGAG TAF 2018/03/21 06:22 UTC NOAA

TAF KGAG 210520Z 2106/2206 VRB04KT P6SM SCT250
FM211300 16008KT P6SM SCT250
FM211800 18012G22KT P6SM BKN250

Example: see airport list